createdAt,value
2022-09-25T00:01:11.536Z,10.50
2022-09-25T00:07:19.261Z,10.40
2022-09-25T00:13:26.185Z,10.30
2022-09-25T00:19:34.674Z,10.30
2022-09-25T00:25:41.767Z,10.40
2022-09-25T00:31:49.206Z,10.60
2022-09-25T00:37:56.526Z,10.80
2022-09-25T00:44:03.698Z,11.00
2022-09-25T00:50:10.559Z,11.00
2022-09-25T00:56:18.102Z,11.00
2022-09-25T01:02:25.488Z,10.90
2022-09-25T01:08:33.364Z,10.90
2022-09-25T01:14:40.734Z,10.90
2022-09-25T01:20:10.749Z,11.00
2022-09-25T01:25:35.367Z,11.10
2022-09-25T01:30:30.815Z,11.10
2022-09-25T01:35:31.587Z,11.10
2022-09-25T01:40:35.374Z,11.20
2022-09-25T01:45:43.257Z,11.30
2022-09-25T01:51:02.712Z,11.40
2022-09-25T01:56:04.700Z,11.40
2022-09-25T02:01:12.463Z,11.60
2022-09-25T02:06:10.205Z,11.50
2022-09-25T02:11:05.912Z,11.60
2022-09-25T02:16:03.039Z,11.60
2022-09-25T02:21:08.459Z,11.50
2022-09-25T02:26:06.125Z,11.60
2022-09-25T02:31:00.112Z,11.70
2022-09-25T02:35:53.539Z,11.70
2022-09-25T02:41:15.043Z,11.70
2022-09-25T02:46:24.084Z,11.70
2022-09-25T02:51:44.252Z,11.70
2022-09-25T02:56:44.476Z,11.70
2022-09-25T03:01:40.530Z,11.80
2022-09-25T03:06:32.984Z,11.90
2022-09-25T03:11:29.730Z,11.90
2022-09-25T03:16:56.912Z,11.80
2022-09-25T03:21:50.100Z,11.70
2022-09-25T03:26:42.947Z,11.70
2022-09-25T03:31:35.513Z,11.60
2022-09-25T03:36:30.039Z,11.70
2022-09-25T03:41:23.099Z,11.70
2022-09-25T03:46:15.873Z,11.70
2022-09-25T03:51:09.422Z,11.70
2022-09-25T03:56:03.249Z,11.70
2022-09-25T04:00:57.908Z,11.70
2022-09-25T04:05:50.842Z,11.70
2022-09-25T04:10:43.031Z,11.70
2022-09-25T04:15:35.512Z,11.70
2022-09-25T04:20:27.726Z,11.60
2022-09-25T04:25:24.446Z,11.60
2022-09-25T04:30:16.856Z,11.60
2022-09-25T04:35:09.247Z,11.50
2022-09-25T04:40:01.562Z,11.60
2022-09-25T04:44:55.451Z,11.60
2022-09-25T04:49:48.246Z,11.50
2022-09-25T04:54:40.852Z,11.50
2022-09-25T04:59:33.271Z,11.60
2022-09-25T05:04:25.569Z,11.60
2022-09-25T05:09:18.099Z,11.70
2022-09-25T05:14:10.310Z,11.70
2022-09-25T05:19:02.546Z,11.70
2022-09-25T05:23:57.003Z,11.80
2022-09-25T05:28:52.222Z,11.70
2022-09-25T05:33:44.574Z,11.70
2022-09-25T05:38:38.825Z,11.80
2022-09-25T05:43:31.920Z,11.90
2022-09-25T05:48:24.578Z,12.00
2022-09-25T05:53:16.777Z,12.20
2022-09-25T05:58:08.954Z,12.30
2022-09-25T06:03:01.965Z,12.50
2022-09-25T06:07:55.569Z,12.80
2022-09-25T06:12:49.099Z,13.00
2022-09-25T06:17:41.392Z,13.10
2022-09-25T06:22:33.605Z,13.30
2022-09-25T06:27:25.860Z,13.60
2022-09-25T06:32:18.076Z,14.10
2022-09-25T06:37:10.331Z,14.50
2022-09-25T06:42:02.552Z,14.80
2022-09-25T06:46:55.631Z,15.10
2022-09-25T06:51:47.878Z,15.50
2022-09-25T06:56:40.066Z,15.70
2022-09-25T07:01:32.422Z,15.70
2022-09-25T07:06:31.592Z,15.50
2022-09-25T07:11:28.386Z,15.40
2022-09-25T07:16:22.883Z,15.50
2022-09-25T07:21:18.645Z,15.80
2022-09-25T07:26:13.326Z,16.10
2022-09-25T07:31:39.456Z,16.30
2022-09-25T07:36:32.726Z,16.50
2022-09-25T07:41:25.255Z,19.40
2022-09-25T07:46:17.638Z,23.10
2022-09-25T07:51:12.074Z,23.30
2022-09-25T07:56:06.993Z,21.70
2022-09-25T08:01:02.261Z,20.40
2022-09-25T08:06:20.791Z,19.50
2022-09-25T08:11:15.539Z,19.10
2022-09-25T08:16:18.961Z,18.90
2022-09-25T08:21:14.449Z,18.50
2022-09-25T08:26:07.922Z,18.60
2022-09-25T08:31:02.096Z,18.60
2022-09-25T08:36:00.373Z,18.70
2022-09-25T08:40:58.727Z,18.90
2022-09-25T08:46:10.370Z,18.70
2022-09-25T08:51:08.726Z,18.90
2022-09-25T08:56:15.315Z,18.90
2022-09-25T09:01:13.256Z,19.10
2022-09-25T09:06:12.641Z,20.60
2022-09-25T09:11:35.510Z,23.50
2022-09-25T09:16:37.462Z,23.40
2022-09-25T09:21:44.673Z,23.10
2022-09-25T09:27:00.179Z,23.40
2022-09-25T09:32:14.341Z,22.80
2022-09-25T09:37:06.868Z,23.40
2022-09-25T09:42:09.355Z,27.90
2022-09-25T09:47:32.617Z,31.10
2022-09-25T09:52:33.682Z,32.70
2022-09-25T09:58:22.111Z,33.60
2022-09-25T10:04:28.971Z,33.90
2022-09-25T10:10:37.153Z,34.30
2022-09-25T10:16:43.888Z,34.80
2022-09-25T10:22:51.467Z,34.00
2022-09-25T10:29:00.055Z,33.90
2022-09-25T10:35:07.196Z,34.90
2022-09-25T10:41:14.457Z,34.70
2022-09-25T10:47:23.198Z,34.50
2022-09-25T10:53:31.690Z,34.70
2022-09-25T10:59:39.023Z,34.20
2022-09-25T11:05:45.846Z,35.50
2022-09-25T11:11:53.189Z,35.00
2022-09-25T11:18:00.558Z,34.10
2022-09-25T11:24:07.913Z,34.10
2022-09-25T11:30:15.000Z,33.90
2022-09-25T11:36:22.224Z,32.80
2022-09-25T11:42:29.312Z,31.00
2022-09-25T11:48:36.688Z,29.10
2022-09-25T11:54:37.762Z,27.10
2022-09-25T11:59:42.288Z,26.00
2022-09-25T12:05:06.520Z,25.40
2022-09-25T12:10:32.127Z,25.00
2022-09-25T12:15:32.841Z,24.80
2022-09-25T12:21:02.900Z,24.30
2022-09-25T12:26:30.536Z,24.20
2022-09-25T12:31:45.181Z,24.20
2022-09-25T12:36:47.903Z,24.10
2022-09-25T12:41:52.110Z,23.80
2022-09-25T12:46:48.258Z,23.10
2022-09-25T12:51:55.168Z,23.00
2022-09-25T12:57:04.804Z,23.00
2022-09-25T13:02:07.596Z,22.70
2022-09-25T13:07:21.468Z,22.80
2022-09-25T13:12:21.504Z,22.80
2022-09-25T13:22:21.525Z,22.40
2022-09-25T13:27:22.540Z,22.20
2022-09-25T13:32:23.727Z,22.30
2022-09-25T13:37:17.315Z,21.90
2022-09-25T13:42:40.200Z,21.70
2022-09-25T13:48:29.473Z,21.60
2022-09-25T13:54:37.009Z,21.70
2022-09-25T14:00:24.119Z,22.10
2022-09-25T14:06:38.867Z,22.10
2022-09-25T14:12:49.962Z,21.70
2022-09-25T14:18:57.692Z,21.50
2022-09-25T14:25:06.356Z,21.20
2022-09-25T14:31:13.311Z,21.20
2022-09-25T14:37:24.571Z,21.00
2022-09-25T14:43:36.004Z,20.80
2022-09-25T14:49:44.032Z,20.50
2022-09-25T14:55:51.324Z,20.30
2022-09-25T15:01:58.892Z,20.30
2022-09-25T15:08:05.683Z,20.20
2022-09-25T15:14:13.564Z,20.30
2022-09-25T15:20:20.525Z,19.90
2022-09-25T15:26:29.297Z,19.50
2022-09-25T15:32:36.476Z,19.30
2022-09-25T15:38:44.252Z,19.20
2022-09-25T15:44:45.197Z,19.20
2022-09-25T15:49:52.448Z,19.00
2022-09-25T15:54:46.713Z,19.00
2022-09-25T16:00:04.258Z,18.80
2022-09-25T16:04:56.787Z,18.70
2022-09-25T16:09:49.843Z,18.60
2022-09-25T16:14:45.735Z,18.40
2022-09-25T16:19:41.183Z,18.30
2022-09-25T16:24:34.450Z,18.20
2022-09-25T16:29:40.637Z,18.10
2022-09-25T16:34:39.603Z,18.00
2022-09-25T16:39:36.574Z,17.80
2022-09-25T16:44:37.915Z,17.60
2022-09-25T16:49:34.149Z,17.40
2022-09-25T16:54:33.619Z,17.20
2022-09-25T16:59:29.541Z,17.00
2022-09-25T17:04:27.986Z,16.80
2022-09-25T17:09:20.998Z,16.60
2022-09-25T17:14:33.805Z,16.40
2022-09-25T17:19:27.167Z,16.10
2022-09-25T17:24:26.690Z,15.90
2022-09-25T17:29:23.155Z,15.70
2022-09-25T17:34:29.002Z,15.50
2022-09-25T17:39:22.283Z,15.30
2022-09-25T17:44:21.920Z,15.20
2022-09-25T17:49:14.858Z,15.10
2022-09-25T17:54:12.157Z,15.00
2022-09-25T17:59:05.588Z,15.10
2022-09-25T18:04:01.594Z,15.10
2022-09-25T18:08:56.033Z,15.10
2022-09-25T18:13:52.421Z,15.00
2022-09-25T18:19:06.882Z,15.00
2022-09-25T18:24:04.736Z,14.90
2022-09-25T18:29:00.713Z,14.80
2022-09-25T18:33:58.352Z,14.60
2022-09-25T18:38:51.085Z,14.60
2022-09-25T18:43:58.106Z,14.40
2022-09-25T18:48:59.641Z,14.10
2022-09-25T18:53:53.124Z,14.00
2022-09-25T18:58:46.113Z,13.90
2022-09-25T19:03:40.985Z,13.90
2022-09-25T19:08:34.226Z,13.90
2022-09-25T19:13:32.947Z,13.90
2022-09-25T19:18:25.891Z,13.80
2022-09-25T19:23:22.552Z,13.70
2022-09-25T19:28:15.063Z,13.80
2022-09-25T19:33:07.670Z,13.70
2022-09-25T19:38:56.224Z,13.50
2022-09-25T19:45:04.899Z,13.30
2022-09-25T19:51:13.047Z,13.20
2022-09-25T19:57:21.197Z,13.30
2022-09-25T20:03:28.282Z,13.30
2022-09-25T20:09:54.435Z,13.00
2022-09-25T20:16:03.357Z,12.70
2022-09-25T20:22:09.956Z,12.60
2022-09-25T20:28:17.545Z,12.60
2022-09-25T20:34:24.957Z,12.60
2022-09-25T20:40:32.354Z,12.80
2022-09-25T20:46:39.631Z,13.00
2022-09-25T20:52:47.096Z,13.00
2022-09-25T20:58:54.123Z,13.00
2022-09-25T21:05:02.319Z,12.90
2022-09-25T21:11:10.342Z,12.90
2022-09-25T21:17:17.599Z,12.90
2022-09-25T21:23:24.820Z,13.10
2022-09-25T21:29:33.303Z,13.00
2022-09-25T21:34:44.103Z,13.00
2022-09-25T21:39:36.417Z,13.00
2022-09-25T21:44:28.829Z,13.00
2022-09-25T21:49:22.122Z,13.00
2022-09-25T21:54:15.391Z,13.00
2022-09-25T21:59:09.304Z,13.00
2022-09-25T22:04:03.655Z,13.00
2022-09-25T22:09:11.737Z,13.20
2022-09-25T22:14:04.937Z,13.20
2022-09-25T22:19:23.254Z,13.20
2022-09-25T22:24:16.382Z,13.20
2022-09-25T22:29:09.985Z,13.30
2022-09-25T22:34:06.359Z,13.40
2022-09-25T22:38:58.757Z,13.50
2022-09-25T22:43:53.056Z,13.50
2022-09-25T22:48:45.573Z,13.60
2022-09-25T22:53:38.683Z,13.50
2022-09-25T22:58:30.884Z,13.50
2022-09-25T23:03:24.855Z,13.60
2022-09-25T23:08:17.400Z,13.70
2022-09-25T23:13:09.656Z,13.80
2022-09-25T23:18:01.963Z,13.90
2022-09-25T23:22:55.703Z,13.90
2022-09-25T23:27:48.041Z,13.90
2022-09-25T23:32:40.270Z,13.80
2022-09-25T23:37:32.443Z,13.80
2022-09-25T23:42:24.829Z,13.70
2022-09-25T23:47:17.420Z,13.70
2022-09-25T23:52:09.595Z,13.80
2022-09-25T23:57:01.743Z,13.80
